Time;durP1;ratioP1;P1;durP2;ratioP2;P2;SDS_P1;SDS_P2;PMS_P1;PMS_P2;Temp;Humidity;BMP_temperature;BMP_pressure;BME280_temperature;BME280_humidity;BME280_pressure;Samples;Min_cycle;Max_cycle;Signal;HPM_P1;HPM_P2
2022/10/21 00:01:27;;;;;;;78.15;34.30;;;10.90;99.90;;;;;;5042707;28;20052;-72
2022/10/21 00:03:53;;;;;;;67.18;33.05;;;10.90;99.90;;;;;;5042930;28;20544;-72
2022/10/21 00:06:18;;;;;;;72.13;32.58;;;10.90;99.90;;;;;;5032046;28;20041;-73
2022/10/21 00:08:44;;;;;;;71.78;33.97;;;10.90;99.90;;;;;;5020308;28;20049;-72
2022/10/21 00:11:10;;;;;;;69.78;33.33;;;10.90;99.90;;;;;;5042734;28;20044;-72
2022/10/21 00:13:40;;;;;;;68.65;34.47;;;10.90;99.90;;;;;;5024962;28;20053;-73
2022/10/21 00:16:06;;;;;;;65.50;32.33;;;10.90;99.90;;;;;;5040581;28;20041;-73
2022/10/21 00:18:33;;;;;;;60.92;31.15;;;10.80;99.90;;;;;;5030440;28;20053;-72
2022/10/21 00:20:59;;;;;;;72.38;33.38;;;10.90;99.90;;;;;;5043651;28;20053;-72
2022/10/21 00:23:25;;;;;;;68.13;33.13;;;10.80;99.90;;;;;;5043325;28;20055;-72
2022/10/21 00:26:01;;;;;;;83.93;33.70;;;10.80;99.90;;;;;;5041706;28;20045;-72
2022/10/21 00:28:27;;;;;;;81.85;33.78;;;10.70;99.90;;;;;;5025868;28;20044;-72
2022/10/21 00:30:54;;;;;;;54.30;29.58;;;10.90;99.90;;;;;;5042074;28;20152;-72
2022/10/21 00:33:20;;;;;;;63.47;30.90;;;10.60;99.90;;;;;;5041361;28;20049;-72
2022/10/21 00:35:57;;;;;;;67.55;31.45;;;10.80;99.90;;;;;;5029825;28;20060;-72
2022/10/21 00:38:23;;;;;;;67.05;31.70;;;10.60;99.90;;;;;;5026698;28;20052;-72
2022/10/21 00:40:48;;;;;;;78.40;33.50;;;10.60;99.90;;;;;;5042335;28;20064;-72
2022/10/21 00:43:14;;;;;;;78.10;31.38;;;10.70;99.90;;;;;;5040540;28;20045;-72
2022/10/21 00:45:42;;;;;;;59.33;30.77;;;10.60;99.90;;;;;;5045531;28;20053;-72
2022/10/21 00:48:28;;;;;;;79.30;33.00;;;10.60;99.90;;;;;;5029401;28;20478;-72
2022/10/21 00:50:59;;;;;;;84.38;33.78;;;10.50;99.90;;;;;;5028719;28;20045;-72
2022/10/21 00:53:25;;;;;;;82.68;33.85;;;10.50;99.90;;;;;;5044857;28;20072;-72
2022/10/21 00:56:06;;;;;;;100.47;37.38;;;10.50;99.90;;;;;;5047384;28;20573;-72
2022/10/21 00:58:32;;;;;;;86.28;34.05;;;10.50;99.90;;;;;;5034971;28;20044;-73
2022/10/21 01:01:01;;;;;;;85.93;34.03;;;10.40;99.90;;;;;;5047238;28;20056;-72
2022/10/21 01:03:29;;;;;;;102.65;35.20;;;10.40;99.90;;;;;;5046461;28;20047;-72
2022/10/21 01:05:58;;;;;;;94.95;34.25;;;10.30;99.90;;;;;;5045441;28;20055;-72
2022/10/21 01:08:24;;;;;;;72.50;32.85;;;10.30;99.90;;;;;;5029024;28;20079;-72
2022/10/21 01:10:50;;;;;;;100.43;35.47;;;10.30;99.90;;;;;;5045791;28;20088;-72
2022/10/21 01:13:35;;;;;;;87.18;34.35;;;10.30;99.90;;;;;;5025415;28;20551;-72
2022/10/21 01:16:18;;;;;;;76.05;32.25;;;10.20;99.90;;;;;;5045780;28;20079;-72
2022/10/21 01:19:05;;;;;;;78.40;34.63;;;10.30;99.90;;;;;;5039763;28;20056;-72
2022/10/21 01:21:33;;;;;;;97.60;38.08;;;10.30;99.90;;;;;;5046446;28;20068;-73
2022/10/21 01:24:16;;;;;;;88.45;36.35;;;10.50;99.90;;;;;;5044459;28;20047;-72
2022/10/21 01:26:58;;;;;;;66.22;32.97;;;10.50;99.90;;;;;;5029786;28;20045;-72
2022/10/21 01:29:24;;;;;;;;;;;10.30;99.90;;;;;;5026136;28;20049;-72
2022/10/21 01:32:12;;;;;;;62.22;30.92;;;10.40;99.90;;;;;;5046976;28;20334;-72
2022/10/21 01:35:24;;;;;;;97.47;34.33;;;10.30;99.90;;;;;;5042165;28;20479;-72
2022/10/21 01:37:58;;;;;;;67.95;31.90;;;10.30;99.90;;;;;;4985433;28;20412;-72
2022/10/21 01:40:39;;;;;;;69.57;30.35;;;10.10;99.90;;;;;;5045009;28;20088;-72
2022/10/21 01:43:19;;;;;;;93.30;33.07;;;10.20;99.90;;;;;;5027202;28;20040;-72
2022/10/21 01:45:53;;;;;;;87.32;35.83;;;10.20;99.90;;;;;;5043364;28;20075;-72
2022/10/21 01:48:26;;;;;;;85.95;35.38;;;10.20;99.90;;;;;;5011677;28;20140;-72
2022/10/21 01:51:01;;;;;;;115.80;37.47;;;10.30;99.90;;;;;;5045122;28;20053;-72
2022/10/21 01:53:31;;;;;;;92.90;34.78;;;10.20;99.90;;;;;;5044951;28;20037;-72
2022/10/21 01:55:58;;;;;;;85.97;35.15;;;10.30;99.90;;;;;;5044709;28;20048;-72
2022/10/21 01:58:28;;;;;;;83.30;35.30;;;10.30;99.90;;;;;;5027999;28;20045;-72
2022/10/21 02:00:57;;;;;;;91.18;37.30;;;10.40;99.90;;;;;;5044737;28;20049;-72
2022/10/21 02:03:31;;;;;;;110.47;40.80;;;10.40;99.90;;;;;;5045154;28;20047;-72
2022/10/21 02:05:57;;;;;;;129.02;40.92;;;10.40;99.90;;;;;;5044707;28;20138;-72
2022/10/21 02:08:22;;;;;;;98.63;38.08;;;10.40;99.90;;;;;;5028141;28;20516;-72
2022/10/21 02:10:53;;;;;;;125.50;39.97;;;10.30;99.90;;;;;;5028034;28;20053;-72
2022/10/21 02:13:28;;;;;;;84.55;35.83;;;10.40;99.90;;;;;;5041253;28;20156;-72
2022/10/21 02:15:58;;;;;;;103.40;39.75;;;10.40;99.90;;;;;;5027479;28;20761;-72
2022/10/21 02:18:25;;;;;;;81.88;38.50;;;10.40;99.90;;;;;;5027654;28;20048;-72
2022/10/21 02:20:55;;;;;;;98.55;39.90;;;10.50;99.90;;;;;;5045821;28;20388;-72
2022/10/21 02:23:29;;;;;;;87.10;37.97;;;10.60;99.90;;;;;;5043828;28;20048;-72
2022/10/21 02:25:55;;;;;;;83.78;38.17;;;10.60;99.90;;;;;;5045136;28;20271;-72
2022/10/21 02:28:21;;;;;;;90.75;40.92;;;10.60;99.90;;;;;;5027734;28;20048;-72
2022/10/21 02:30:58;;;;;;;85.18;41.33;;;10.80;99.90;;;;;;5044307;28;20065;-73
2022/10/21 02:33:37;;;;;;;109.53;45.65;;;10.90;99.90;;;;;;5043527;28;20045;-72
2022/10/21 02:36:14;;;;;;;88.10;43.88;;;11.00;99.90;;;;;;5061433;28;20555;-73
2022/10/21 02:38:48;;;;;;;106.68;47.13;;;11.10;99.90;;;;;;5037501;28;20119;-73
2022/10/21 02:41:19;;;;;;;99.45;44.78;;;11.10;99.90;;;;;;5043777;28;20053;-72
2022/10/21 02:43:50;;;;;;;95.80;43.47;;;11.20;99.90;;;;;;5044382;28;20124;-72
2022/10/21 02:46:16;;;;;;;102.53;43.85;;;11.20;99.90;;;;;;5033813;28;20057;-72
2022/10/21 02:48:44;;;;;;;90.55;43.13;;;11.10;99.90;;;;;;5035699;28;20053;-72
2022/10/21 02:51:10;;;;;;;91.60;44.00;;;11.20;99.90;;;;;;5042410;28;20079;-72
2022/10/21 02:53:37;;;;;;;86.57;41.42;;;11.30;99.90;;;;;;5041378;28;20049;-73
2022/10/21 02:56:03;;;;;;;106.45;43.88;;;11.30;99.90;;;;;;5042496;28;20059;-71
2022/10/21 02:58:28;;;;;;;115.32;44.47;;;11.30;99.90;;;;;;5025648;28;20048;-73
2022/10/21 03:00:54;;;;;;;173.40;50.85;;;11.40;99.90;;;;;;5043460;28;20045;-73
2022/10/21 03:03:20;;;;;;;158.57;48.20;;;11.40;99.90;;;;;;5042396;28;20051;-73
2022/10/21 03:05:46;;;;;;;89.60;40.08;;;11.50;99.90;;;;;;5044211;28;20586;-74
2022/10/21 03:08:11;;;;;;;126.07;44.88;;;11.80;99.90;;;;;;5026384;28;20044;-74
2022/10/21 03:10:37;;;;;;;100.10;40.30;;;11.90;99.90;;;;;;5042858;28;20059;-74
2022/10/21 03:13:03;;;;;;;119.43;42.25;;;12.10;99.90;;;;;;5042070;28;20045;-74
2022/10/21 03:15:29;;;;;;;104.55;42.03;;;12.10;99.90;;;;;;5043082;28;20044;-74
2022/10/21 03:17:54;;;;;;;103.00;40.33;;;12.20;99.90;;;;;;5026135;28;20482;-74
2022/10/21 03:20:20;;;;;;;84.25;35.63;;;12.30;99.90;;;;;;5044754;28;20048;-74
2022/10/21 03:22:46;;;;;;;96.65;37.63;;;12.30;99.90;;;;;;5043712;28;20061;-74
2022/10/21 03:25:12;;;;;;;95.35;38.53;;;12.30;99.90;;;;;;5042680;28;20048;-74
2022/10/21 03:27:38;;;;;;;81.57;37.30;;;12.40;99.90;;;;;;5026273;28;20052;-74
2022/10/21 03:30:05;;;;;;;115.18;41.15;;;12.40;99.90;;;;;;5043096;28;20041;-75
2022/10/21 03:32:30;;;;;;;133.68;42.28;;;12.40;99.90;;;;;;5042071;28;20055;-74
2022/10/21 03:34:56;;;;;;;146.15;42.33;;;12.50;99.90;;;;;;5042989;28;20459;-74
2022/10/21 03:37:22;;;;;;;140.38;41.42;;;12.20;99.90;;;;;;5011132;28;20041;-74
2022/10/21 03:39:47;;;;;;;135.15;40.42;;;12.10;99.90;;;;;;5044167;28;20049;-74
2022/10/21 03:42:13;;;;;;;119.68;38.42;;;12.30;99.90;;;;;;5041633;28;20126;-74
2022/10/21 03:44:39;;;;;;;169.93;42.28;;;12.30;99.90;;;;;;5045316;28;20155;-74
2022/10/21 03:47:05;;;;;;;203.10;46.80;;;12.30;99.90;;;;;;5026495;28;20049;-73
2022/10/21 03:49:31;;;;;;;160.05;45.05;;;12.20;99.90;;;;;;5042352;28;20052;-74
2022/10/21 03:51:57;;;;;;;157.85;44.42;;;12.10;99.90;;;;;;5043077;28;20044;-74
2022/10/21 03:54:22;;;;;;;206.23;48.47;;;12.10;99.90;;;;;;5041570;28;20048;-73
2022/10/21 03:56:48;;;;;;;143.40;42.95;;;12.10;99.90;;;;;;5029131;28;20122;-74
2022/10/21 03:59:14;;;;;;;278.52;53.58;;;12.10;99.90;;;;;;5041526;28;20057;-74
2022/10/21 04:01:39;;;;;;;180.65;45.42;;;12.00;99.90;;;;;;5042894;28;20049;-74
2022/10/21 04:04:05;;;;;;;225.70;48.40;;;12.00;99.90;;;;;;5041742;28;20045;-74
2022/10/21 04:06:31;;;;;;;293.00;57.15;;;12.00;99.90;;;;;;5029464;28;20037;-73
2022/10/21 04:08:57;;;;;;;228.40;50.45;;;11.90;99.90;;;;;;5039280;28;20139;-74
2022/10/21 04:11:22;;;;;;;138.88;44.50;;;11.80;99.90;;;;;;5042837;28;20500;-73
2022/10/21 04:13:48;;;;;;;110.13;41.35;;;11.90;99.90;;;;;;5043061;28;20060;-74
2022/10/21 04:16:17;;;;;;;144.40;44.17;;;11.90;99.90;;;;;;5032814;28;20052;-74
2022/10/21 04:18:43;;;;;;;188.90;46.80;;;11.80;99.90;;;;;;5041822;28;20040;-74
2022/10/21 04:21:09;;;;;;;155.05;45.35;;;11.90;99.90;;;;;;5045915;28;20044;-74
2022/10/21 04:23:35;;;;;;;143.63;44.55;;;11.80;99.90;;;;;;5045060;28;20123;-73
2022/10/21 04:26:01;;;;;;;180.27;47.50;;;11.80;99.90;;;;;;5047494;28;20056;-74
2022/10/21 04:28:27;;;;;;;148.40;45.15;;;11.80;99.90;;;;;;5031049;28;20040;-73
2022/10/21 04:30:52;;;;;;;199.90;48.90;;;11.80;99.90;;;;;;5045995;28;20487;-74
2022/10/21 04:33:18;;;;;;;157.32;45.95;;;11.90;99.90;;;;;;5044693;28;20404;-74
2022/10/21 04:35:44;;;;;;;152.65;44.67;;;11.70;99.90;;;;;;5046243;28;20552;-74
2022/10/21 04:38:09;;;;;;;137.95;42.50;;;11.90;99.90;;;;;;5022613;28;20041;-74
2022/10/21 04:40:35;;;;;;;148.27;44.15;;;11.70;99.90;;;;;;5047220;28;20093;-73
2022/10/21 04:43:01;;;;;;;166.10;45.97;;;11.70;99.90;;;;;;5044498;28;20053;-74
2022/10/21 04:45:27;;;;;;;174.68;45.38;;;11.80;99.90;;;;;;5045405;28;20453;-74
2022/10/21 04:47:53;;;;;;;152.48;44.33;;;11.70;99.90;;;;;;5030962;28;20075;-74
2022/10/21 04:50:18;;;;;;;167.20;47.03;;;11.60;99.90;;;;;;5045603;28;20055;-73
2022/10/21 04:52:44;;;;;;;193.40;49.80;;;11.60;99.90;;;;;;5046298;28;20044;-73
2022/10/21 04:55:10;;;;;;;197.00;49.72;;;11.70;99.90;;;;;;5047206;28;20048;-74
2022/10/21 04:57:35;;;;;;;158.80;44.85;;;11.60;99.90;;;;;;5012264;28;20625;-73
2022/10/21 05:00:03;;;;;;;137.75;43.78;;;11.50;99.90;;;;;;5045582;28;20099;-74
2022/10/21 05:02:28;;;;;;;122.38;41.30;;;11.60;99.90;;;;;;5044596;28;20550;-74
2022/10/21 05:04:54;;;;;;;152.68;43.45;;;11.50;99.90;;;;;;5047250;28;20037;-73
2022/10/21 05:07:19;;;;;;;97.47;36.53;;;11.60;99.90;;;;;;5028884;28;20075;-74
2022/10/21 05:09:45;;;;;;;174.20;46.80;;;11.40;99.90;;;;;;5045169;28;20052;-73
2022/10/21 05:12:11;;;;;;;180.60;44.05;;;11.40;99.90;;;;;;5046320;28;20047;-74
2022/10/21 05:14:36;;;;;;;178.68;42.95;;;11.30;99.90;;;;;;5046588;28;20094;-73
2022/10/21 05:17:02;;;;;;;282.35;53.42;;;11.20;99.90;;;;;;5031284;28;20041;-74
2022/10/21 05:19:28;;;;;;;247.32;50.05;;;11.20;99.90;;;;;;5045925;28;20507;-73
2022/10/21 05:21:54;;;;;;;170.00;42.20;;;11.00;99.90;;;;;;5046364;28;20045;-74
2022/10/21 05:24:19;;;;;;;259.98;52.17;;;11.30;99.90;;;;;;5045984;28;20037;-74
2022/10/21 05:26:45;;;;;;;181.70;45.35;;;11.20;99.90;;;;;;5029619;28;20139;-73
2022/10/21 05:29:11;;;;;;;204.75;47.33;;;11.10;99.90;;;;;;5042836;28;20056;-73
2022/10/21 05:31:36;;;;;;;170.60;45.13;;;11.20;99.90;;;;;;5045379;28;20072;-74
2022/10/21 05:34:02;;;;;;;255.13;54.70;;;11.20;99.90;;;;;;5043972;28;20049;-73
2022/10/21 05:36:28;;;;;;;310.20;59.33;;;11.10;99.90;;;;;;5033846;28;20060;-73
2022/10/21 05:38:53;;;;;;;327.67;64.93;;;11.20;99.90;;;;;;5041122;28;20049;-73
2022/10/21 05:41:19;;;;;;;315.10;62.40;;;11.40;99.90;;;;;;5044803;28;20051;-73
2022/10/21 05:43:45;;;;;;;519.90;82.38;;;11.40;99.90;;;;;;5044215;28;20057;-73
2022/10/21 05:46:10;;;;;;;476.83;76.72;;;11.40;99.90;;;;;;5021208;28;20107;-74
2022/10/21 05:48:36;;;;;;;156.25;45.78;;;11.40;99.90;;;;;;5018804;28;20048;-74
2022/10/21 05:51:03;;;;;;;629.42;95.53;;;11.40;99.90;;;;;;5044461;28;20044;-73
2022/10/21 05:53:28;;;;;;;508.30;80.78;;;11.40;99.90;;;;;;5043663;28;20045;-73
2022/10/21 05:56:00;;;;;;;455.00;77.25;;;11.50;99.90;;;;;;5045352;28;20094;-73
2022/10/21 05:58:26;;;;;;;460.77;79.72;;;11.50;99.90;;;;;;5028636;28;20118;-73
2022/10/21 06:00:55;;;;;;;242.18;55.72;;;11.50;99.90;;;;;;5044649;28;20048;-74
2022/10/21 06:03:28;;;;;;;383.35;68.72;;;11.60;99.90;;;;;;5043283;28;20159;-73
2022/10/21 06:05:55;;;;;;;423.10;72.05;;;11.60;99.90;;;;;;5045115;28;20059;-73
2022/10/21 06:08:21;;;;;;;471.77;77.93;;;11.60;99.90;;;;;;5024876;28;20086;-73
2022/10/21 06:10:47;;;;;;;365.90;66.15;;;11.50;99.90;;;;;;5045796;28;20048;-73
2022/10/21 06:13:12;;;;;;;515.67;81.68;;;11.60;99.90;;;;;;5043715;28;20443;-73
2022/10/21 06:15:38;;;;;;;328.63;65.82;;;11.60;99.90;;;;;;5044111;28;20076;-74
2022/10/21 06:18:03;;;;;;;386.70;72.57;;;11.60;99.90;;;;;;5028978;28;20044;-74
2022/10/21 06:20:29;;;;;;;230.57;59.78;;;11.60;99.90;;;;;;5044316;28;20045;-74
2022/10/21 06:22:55;;;;;;;334.00;72.05;;;11.60;99.90;;;;;;5043064;28;20045;-74
2022/10/21 06:25:20;;;;;;;263.50;64.22;;;11.80;99.90;;;;;;5044386;28;20065;-74
2022/10/21 06:27:46;;;;;;;184.98;53.83;;;11.90;99.90;;;;;;4994600;28;20299;-73
2022/10/21 06:30:12;;;;;;;204.10;61.13;;;11.90;99.90;;;;;;5026950;28;20484;-74
2022/10/21 06:32:37;;;;;;;349.52;74.38;;;12.00;99.90;;;;;;5044096;28;20075;-74
2022/10/21 06:35:03;;;;;;;231.48;63.55;;;12.10;99.90;;;;;;5042674;28;20040;-74
2022/10/21 06:37:29;;;;;;;229.20;64.53;;;12.10;99.90;;;;;;5026192;28;20071;-74
2022/10/21 06:39:54;;;;;;;198.20;61.92;;;12.10;99.90;;;;;;5042444;28;20120;-74
2022/10/21 06:42:20;;;;;;;200.20;61.90;;;12.20;99.90;;;;;;5036283;28;20118;-73
2022/10/21 06:44:46;;;;;;;189.40;61.28;;;12.20;99.90;;;;;;5026528;28;20160;-74
2022/10/21 06:47:11;;;;;;;181.55;59.58;;;12.30;99.90;;;;;;5013410;28;20049;-73
2022/10/21 06:49:37;;;;;;;173.18;58.17;;;12.30;99.90;;;;;;5032789;28;20778;-73
2022/10/21 06:52:03;;;;;;;169.32;57.15;;;12.30;99.90;;;;;;5042408;28;20037;-74
2022/10/21 06:54:29;;;;;;;201.88;60.75;;;12.30;99.90;;;;;;5041504;28;20550;-74
2022/10/21 06:56:55;;;;;;;179.38;57.42;;;12.30;99.90;;;;;;5027031;28;20044;-74
2022/10/21 06:59:21;;;;;;;165.43;57.75;;;12.30;99.90;;;;;;5039052;28;20049;-74
2022/10/21 07:01:46;;;;;;;156.27;54.13;;;12.30;99.90;;;;;;5040217;28;20103;-73
2022/10/21 07:04:12;;;;;;;157.23;56.25;;;12.30;99.90;;;;;;5003611;28;20439;-74
2022/10/21 07:06:38;;;;;;;174.63;55.22;;;12.30;99.90;;;;;;4988956;28;20159;-74
2022/10/21 07:09:05;;;;;;;150.70;52.85;;;12.40;99.90;;;;;;5039205;28;20510;-74
2022/10/21 07:11:31;;;;;;;164.52;58.20;;;12.40;99.90;;;;;;5044066;28;20080;-74
2022/10/21 07:13:58;;;;;;;129.52;50.33;;;12.40;99.90;;;;;;4991104;28;20159;-74
2022/10/21 07:16:27;;;;;;;273.13;62.65;;;12.40;99.90;;;;;;5012183;28;20048;-74
2022/10/21 07:18:54;;;;;;;132.95;48.20;;;12.50;99.90;;;;;;5016239;28;20824;-73
2022/10/21 07:21:21;;;;;;;156.70;51.97;;;12.50;99.90;;;;;;5022407;28;20099;-73
2022/10/21 07:23:51;;;;;;;235.80;61.13;;;12.50;99.90;;;;;;5019160;28;21224;-74
2022/10/21 07:26:19;;;;;;;139.73;48.72;;;12.60;99.90;;;;;;5008364;28;20092;-74
2022/10/21 07:28:46;;;;;;;139.38;50.47;;;12.50;99.90;;;;;;5014125;28;20045;-74
2022/10/21 07:31:21;;;;;;;142.98;50.75;;;12.60;99.90;;;;;;5018838;28;20041;-74
2022/10/21 07:33:47;;;;;;;138.45;48.75;;;12.60;99.90;;;;;;5018904;28;20053;-73
2022/10/21 07:36:18;;;;;;;192.70;54.58;;;12.70;99.90;;;;;;5010256;28;20487;-73
2022/10/21 07:38:47;;;;;;;;;;;12.60;99.90;;;;;;5017961;28;20061;-73
2022/10/21 07:41:19;;;;;;;116.82;44.25;;;12.60;99.90;;;;;;5023028;28;19924;-73
2022/10/21 07:43:44;;;;;;;;;;;12.60;99.90;;;;;;5022185;28;20776;-74
2022/10/21 07:46:10;;;;;;;125.93;44.85;;;12.60;99.90;;;;;;5015931;28;19929;-74
2022/10/21 07:48:36;;;;;;;122.90;45.08;;;12.60;99.90;;;;;;5013442;28;20071;-73
2022/10/21 07:51:08;;;;;;;100.20;41.53;;;12.60;99.90;;;;;;5022363;28;20435;-73
2022/10/21 07:53:33;;;;;;;114.32;42.97;;;12.50;99.90;;;;;;5026325;28;20041;-73
2022/10/21 07:56:12;;;;;;;101.57;40.58;;;12.60;99.90;;;;;;5029058;28;20049;-74
2022/10/21 07:58:38;;;;;;;94.75;40.05;;;12.50;99.90;;;;;;5018336;28;20052;-73
2022/10/21 08:01:06;;;;;;;136.43;45.53;;;12.60;99.90;;;;;;5011936;28;20558;-73
2022/10/21 08:03:32;;;;;;;94.05;39.75;;;12.60;99.90;;;;;;5007692;28;20041;-73
2022/10/21 08:05:58;;;;;;;93.47;39.50;;;12.50;99.90;;;;;;5027851;28;20057;-74
2022/10/21 08:08:24;;;;;;;97.43;41.22;;;12.50;99.90;;;;;;5010512;28;20037;-73
2022/10/21 08:10:52;;;;;;;93.22;39.78;;;12.50;99.90;;;;;;5027541;28;20045;-74
2022/10/21 08:13:17;;;;;;;96.93;39.17;;;12.60;99.90;;;;;;5025980;28;20697;-74
2022/10/21 08:15:45;;;;;;;98.10;40.22;;;12.60;99.90;;;;;;5008536;28;20045;-74
2022/10/21 08:18:11;;;;;;;97.53;41.08;;;12.70;99.90;;;;;;5011935;28;20067;-74
2022/10/21 08:20:44;;;;;;;85.20;37.75;;;12.60;99.90;;;;;;5010808;28;20072;-74
2022/10/21 08:23:13;;;;;;;116.07;41.65;;;12.60;99.90;;;;;;5025968;28;20061;-73
2022/10/21 08:25:38;;;;;;;103.65;39.28;;;12.70;99.90;;;;;;5026430;28;20045;-74
2022/10/21 08:28:05;;;;;;;100.72;39.95;;;12.60;99.90;;;;;;5009801;28;20060;-73
2022/10/21 08:30:32;;;;;;;120.95;42.25;;;12.70;99.90;;;;;;5026328;28;20496;-74
2022/10/21 08:32:58;;;;;;;96.13;39.13;;;12.70;99.90;;;;;;5026884;28;20057;-74
2022/10/21 08:35:27;;;;;;;99.00;38.67;;;12.70;99.90;;;;;;5028814;28;20068;-74
2022/10/21 08:37:53;;;;;;;122.85;43.28;;;12.80;99.90;;;;;;5013086;28;20049;-73
2022/10/21 08:40:20;;;;;;;109.60;40.60;;;12.60;99.90;;;;;;5029021;28;20049;-74
2022/10/21 08:42:46;;;;;;;111.50;41.83;;;12.80;99.90;;;;;;5024801;28;20059;-73
2022/10/21 08:45:27;;;;;;;122.47;41.40;;;12.80;99.90;;;;;;5027006;28;20647;-74
2022/10/21 08:47:58;;;;;;;107.22;41.28;;;12.80;99.90;;;;;;5012748;28;20041;-74
2022/10/21 08:50:29;;;;;;;105.85;41.00;;;12.90;99.90;;;;;;5027248;28;20057;-73
2022/10/21 08:53:03;;;;;;;85.03;38.50;;;12.90;99.90;;;;;;5026217;28;20527;-74
2022/10/21 08:55:37;;;;;;;78.00;39.13;;;13.00;99.90;;;;;;5026320;28;20044;-73
2022/10/21 08:58:03;;;;;;;81.13;39.50;;;12.90;99.90;;;;;;5009331;28;20072;-73
2022/10/21 09:00:44;;;;;;;76.15;37.90;;;13.00;99.90;;;;;;5024205;28;20086;-73
2022/10/21 09:03:27;;;;;;;77.95;39.13;;;13.10;99.90;;;;;;5021655;28;20140;-74
2022/10/21 09:06:19;;;;;;;78.78;41.97;;;13.20;99.90;;;;;;5023062;28;20506;-74
2022/10/21 09:09:00;;;;;;;72.80;39.33;;;13.30;99.90;;;;;;5018719;28;20146;-74
2022/10/21 09:11:53;;;;;;;70.63;36.00;;;13.40;99.90;;;;;;5024896;28;20600;-74
2022/10/21 09:14:28;;;;;;;64.32;34.92;;;13.40;99.90;;;;;;5022731;28;20052;-73
2022/10/21 09:17:17;;;;;;;60.88;34.30;;;13.30;99.90;;;;;;5007572;28;20501;-74
2022/10/21 09:19:59;;;;;;;60.58;33.90;;;13.50;99.90;;;;;;5024655;28;20517;-74
2022/10/21 09:22:47;;;;;;;58.92;32.90;;;13.60;99.90;;;;;;5023303;28;20442;-74
2022/10/21 09:25:20;;;;;;;55.88;33.05;;;13.70;99.90;;;;;;5024594;28;20048;-73
2022/10/21 09:27:46;;;;;;;52.45;31.42;;;13.60;99.90;;;;;;5008767;28;20053;-74
2022/10/21 09:30:21;;;;;;;54.63;31.38;;;13.70;99.90;;;;;;5025406;28;20041;-73
2022/10/21 09:32:49;;;;;;;50.65;30.02;;;13.80;99.90;;;;;;5024784;28;20055;-74
2022/10/21 09:35:25;;;;;;;48.50;28.83;;;14.00;99.90;;;;;;5022111;28;20095;-74
2022/10/21 09:37:59;;;;;;;43.83;26.65;;;14.10;99.90;;;;;;5007061;28;20061;-74
2022/10/21 09:40:29;;;;;;;43.30;25.73;;;14.20;99.90;;;;;;5023858;28;20045;-74
2022/10/21 09:43:00;;;;;;;40.50;25.95;;;14.20;99.90;;;;;;5022448;28;20065;-74
2022/10/21 09:45:36;;;;;;;37.50;24.08;;;14.10;99.90;;;;;;5024784;28;20056;-74
2022/10/21 09:48:16;;;;;;;46.55;24.23;;;14.20;99.90;;;;;;5006786;28;20049;-74
2022/10/21 09:50:42;;;;;;;43.08;23.63;;;14.40;99.90;;;;;;5023805;28;20055;-74
2022/10/21 09:53:16;;;;;;;41.35;24.85;;;14.40;99.90;;;;;;5022778;28;20052;-73
2022/10/21 09:55:46;;;;;;;38.00;23.40;;;14.40;99.90;;;;;;5023346;28;20449;-73
2022/10/21 09:58:26;;;;;;;45.30;24.02;;;14.60;99.90;;;;;;5007597;28;20036;-73
2022/10/21 10:00:53;;;;;;;33.05;20.23;;;14.50;99.90;;;;;;5025468;28;20178;-73
2022/10/21 10:03:50;;;;;;;30.27;19.50;;;14.50;99.90;;;;;;5022215;28;20060;-73
2022/10/21 10:06:44;;;;;;;30.38;19.20;;;14.60;99.90;;;;;;5003007;28;20134;-73
2022/10/21 10:09:23;;;;;;;32.67;19.33;;;14.60;99.90;;;;;;5003890;28;20049;-73
2022/10/21 10:11:56;;;;;;;33.15;19.65;;;14.70;99.90;;;;;;5022099;28;20053;-73
2022/10/21 10:14:26;;;;;;;30.88;19.67;;;14.70;99.90;;;;;;5023536;28;20053;-73
2022/10/21 10:16:51;;;;;;;29.10;18.60;;;14.70;99.90;;;;;;5006703;28;20064;-74
2022/10/21 10:19:21;;;;;;;30.40;19.20;;;14.80;99.90;;;;;;5021248;28;20060;-74
2022/10/21 10:22:07;;;;;;;30.27;18.88;;;14.90;99.90;;;;;;5023012;28;20102;-74
2022/10/21 10:24:33;;;;;;;28.95;17.65;;;14.80;99.90;;;;;;4991212;28;20056;-74
2022/10/21 10:27:04;;;;;;;28.77;17.88;;;14.80;99.90;;;;;;5005511;28;20129;-74
2022/10/21 10:29:30;;;;;;;31.58;18.90;;;15.00;99.90;;;;;;5021868;28;20053;-74
2022/10/21 10:31:59;;;;;;;38.92;24.88;;;15.00;99.90;;;;;;5021687;28;20081;-74
2022/10/21 10:34:31;;;;;;;39.25;25.58;;;15.10;99.90;;;;;;5018207;28;20043;-74
2022/10/21 10:37:06;;;;;;;29.50;17.83;;;15.10;99.90;;;;;;4988545;28;20055;-74
2022/10/21 10:39:36;;;;;;;30.80;20.40;;;15.10;99.90;;;;;;5019825;28;20056;-74
2022/10/21 10:42:02;;;;;;;32.42;18.92;;;15.20;99.90;;;;;;5019477;28;20049;-74
2022/10/21 10:44:36;;;;;;;28.50;18.70;;;15.30;99.90;;;;;;5035880;28;20063;-74
2022/10/21 10:47:04;;;;;;;27.38;19.23;;;15.30;99.90;;;;;;5004573;28;20130;-74
2022/10/21 10:49:38;;;;;;;27.65;18.38;;;15.40;99.90;;;;;;5018663;28;20524;-75
2022/10/21 10:52:19;;;;;;;29.48;17.02;;;15.40;99.90;;;;;;5021644;28;20044;-73
2022/10/21 10:54:46;;;;;;;26.60;16.20;;;15.50;99.90;;;;;;5021525;28;20075;-74
2022/10/21 10:57:16;;;;;;;23.20;15.63;;;15.40;99.90;;;;;;5007535;28;20492;-74
2022/10/21 10:59:51;;;;;;;25.17;14.43;;;15.40;99.90;;;;;;5022623;28;20656;-74
2022/10/21 11:02:42;;;;;;;21.50;13.98;;;15.50;99.90;;;;;;5004821;28;20060;-74
2022/10/21 11:05:29;;;;;;;20.30;12.75;;;15.50;99.90;;;;;;5022950;28;20066;-75
2022/10/21 11:08:19;;;;;;;22.38;14.25;;;15.50;99.90;;;;;;4990278;28;20750;-74
2022/10/21 11:10:49;;;;;;;20.23;13.13;;;15.60;99.90;;;;;;5022751;28;21591;-75
2022/10/21 11:13:17;;;;;;;22.67;14.60;;;15.60;99.90;;;;;;5021293;28;20041;-74
2022/10/21 11:16:02;;;;;;;24.85;13.38;;;15.60;99.90;;;;;;5023045;28;20053;-74
2022/10/21 11:18:42;;;;;;;17.20;11.65;;;15.70;99.90;;;;;;5006563;28;20084;-75
2022/10/21 11:21:36;;;;;;;22.75;12.45;;;15.70;99.90;;;;;;5006460;28;20095;-74
2022/10/21 11:24:22;;;;;;;16.17;10.90;;;15.70;99.90;;;;;;5021244;28;20049;-75
2022/10/21 11:27:18;;;;;;;15.60;10.32;;;15.70;99.90;;;;;;5006397;28;20092;-75
2022/10/21 11:29:50;;;;;;;18.83;10.05;;;15.70;99.90;;;;;;5013294;28;20049;-75
2022/10/21 11:32:53;;;;;;;17.73;10.15;;;15.70;99.90;;;;;;5020782;28;20059;-75
2022/10/21 11:35:32;;;;;;;19.17;10.00;;;15.70;99.90;;;;;;5022429;28;20041;-75
2022/10/21 11:38:32;;;;;;;17.38;10.45;;;15.70;99.90;;;;;;5008163;28;20045;-75
2022/10/21 11:41:15;;;;;;;17.27;11.13;;;15.80;99.90;;;;;;4988798;28;20143;-75
2022/10/21 11:43:48;;;;;;;17.95;10.65;;;15.70;99.90;;;;;;5019881;28;20124;-75
2022/10/21 11:46:31;;;;;;;17.23;10.05;;;15.80;99.90;;;;;;5012189;28;20061;-75
2022/10/21 11:49:17;;;;;;;22.48;10.48;;;15.80;99.90;;;;;;5018180;28;20479;-75
2022/10/21 11:51:57;;;;;;;19.85;10.90;;;15.80;99.90;;;;;;5023025;28;20642;-75
2022/10/21 11:54:45;;;;;;;16.30;10.63;;;15.90;99.90;;;;;;5020386;28;20915;-75
2022/10/21 11:57:31;;;;;;;17.80;10.05;;;15.90;99.90;;;;;;5005965;28;20053;-75
2022/10/21 11:59:59;;;;;;;15.98;9.15;;;15.90;99.90;;;;;;5022554;28;20049;-74
2022/10/21 12:02:44;;;;;;;16.75;10.02;;;15.90;99.90;;;;;;5019721;28;20045;-75
2022/10/21 12:05:32;;;;;;;17.83;10.35;;;15.80;99.90;;;;;;5020317;28;20053;-75
2022/10/21 12:08:04;;;;;;;17.13;9.82;;;15.80;99.90;;;;;;5003974;28;20057;-75
2022/10/21 12:10:44;;;;;;;12.88;9.60;;;15.90;99.90;;;;;;5020648;28;20061;-75
2022/10/21 12:13:16;;;;;;;14.27;9.80;;;15.90;99.90;;;;;;5018790;28;20488;-75
2022/10/21 12:16:10;;;;;;;18.15;10.85;;;15.90;99.90;;;;;;5020512;28;20072;-75
2022/10/21 12:18:52;;;;;;;16.65;10.40;;;16.00;99.90;;;;;;5001163;28;22495;-75
2022/10/21 12:21:23;;;;;;;13.68;9.93;;;15.90;99.90;;;;;;5019612;28;20123;-75
2022/10/21 12:24:05;;;;;;;14.27;9.90;;;16.00;99.90;;;;;;5018748;28;20045;-75
2022/10/21 12:26:43;;;;;;;18.38;10.50;;;16.00;99.90;;;;;;5007663;28;20060;-75
2022/10/21 12:29:23;;;;;;;15.25;10.30;;;15.90;99.90;;;;;;5020460;28;20585;-75
2022/10/21 12:32:04;;;;;;;17.77;10.73;;;15.90;99.90;;;;;;5021833;28;20595;-75
2022/10/21 12:34:31;;;;;;;17.83;9.57;;;16.00;99.90;;;;;;5003699;28;20057;-75
2022/10/21 12:36:57;;;;;;;15.10;9.98;;;15.90;99.90;;;;;;4990790;28;20057;-75
2022/10/21 12:39:31;;;;;;;15.05;9.25;;;15.90;99.90;;;;;;5023469;28;20063;-75
2022/10/21 12:42:10;;;;;;;19.50;10.48;;;15.90;99.90;;;;;;5025366;28;20068;-75